Time;durP1;ratioP1;P1;durP2;ratioP2;P2;SDS_P1;SDS_P2;PMS_P1;PMS_P2;Temp;Humidity;BMP_temperature;BMP_pressure;BME280_temperature;BME280_humidity;BME280_pressure;Samples;Min_cycle;Max_cycle;Signal;HPM_P1;HPM_P2
2021/12/05 00:16:51;;;;;;;;;;;1.30;99.90;;;;;;4792997;29;19951;-90
2021/12/05 00:18:57;;;;;;;;;;;1.20;99.90;;;;;;4799219;29;20049;-91
2021/12/05 00:24:05;;;;;;;;;;;1.20;99.90;;;;;;4869436;29;20292;-90
2021/12/05 00:26:32;;;;;;;;;;;1.20;99.90;;;;;;4868579;29;20490;-90
2021/12/05 00:29:16;;;;;;;;;;;1.20;99.90;;;;;;4852236;29;19929;-90
2021/12/05 00:31:52;;;;;;;;;;;1.10;99.90;;;;;;4851501;29;20380;-89
2021/12/05 00:34:44;;;;;;;;;;;1.20;99.90;;;;;;4842767;29;19939;-89
2021/12/05 00:48:33;;;;;;;;;;;1.10;99.90;;;;;;4868162;29;20295;-89
2021/12/05 00:51:15;;;;;;;;;;;1.10;99.90;;;;;;4867229;29;19916;-89
2021/12/05 00:56:49;;;;;;;;;;;1.10;99.90;;;;;;4866431;29;19976;-89
2021/12/05 01:15:45;;;;;;;;;;;1.20;99.90;;;;;;4867786;29;19979;-90
2021/12/05 01:18:16;;;;;;;;;;;1.10;99.90;;;;;;4844553;29;20422;-90
2021/12/05 01:20:43;;;;;;;;;;;1.10;99.90;;;;;;4867142;29;19923;-90
2021/12/05 01:23:19;;;;;;;;;;;1.10;99.90;;;;;;4867355;29;19988;-89
2021/12/05 01:25:54;;;;;;;;;;;1.10;99.90;;;;;;4865993;29;19926;-89
2021/12/05 01:30:56;;;;;;;;;;;1.10;99.90;;;;;;4867850;29;19916;-90
2021/12/05 01:33:43;;;;;;;;;;;1.10;99.90;;;;;;4867636;29;19976;-90
2021/12/05 02:03:12;;;;;;;;;;;1.10;99.90;;;;;;4852409;29;20412;-90
2021/12/05 02:41:16;;;;;;;;;;;1.20;99.90;;;;;;4865347;29;19995;-89
2021/12/05 02:43:47;;;;;;;;;;;1.20;99.90;;;;;;4870299;29;19992;-89
2021/12/05 02:46:14;;;;;;;;;;;1.20;99.90;;;;;;4871198;29;19915;-90
2021/12/05 02:48:41;;;;;;;;;;;1.10;99.90;;;;;;4856059;29;20387;-90
2021/12/05 02:51:26;;;;;;;;;;;1.10;99.90;;;;;;4870383;29;19924;-89
2021/12/05 02:54:03;;;;;;;;;;;1.10;99.90;;;;;;4840443;29;20443;-90
2021/12/05 02:56:31;;;;;;;;;;;1.10;99.90;;;;;;4857009;29;20440;-90
2021/12/05 02:59:04;;;;;;;;;;;1.10;99.90;;;;;;4872009;29;19922;-89
2021/12/05 03:03:58;;;;;;;;;;;1.10;99.90;;;;;;4873499;29;19927;-89
2021/12/05 03:06:26;;;;;;;;;;;1.10;99.90;;;;;;4870874;29;20024;-89
2021/12/05 03:08:59;;;;;;;;;;;1.10;99.90;;;;;;4856365;29;19990;-90
2021/12/05 03:11:26;;;;;;;;;;;1.20;99.90;;;;;;4871565;29;19916;-89
2021/12/05 03:13:52;;;;;;;;;;;1.10;99.90;;;;;;4871772;29;19915;-89
2021/12/05 03:16:18;;;;;;;;;;;1.10;99.90;;;;;;4870299;29;20396;-89
2021/12/05 03:18:44;;;;;;;;;;;1.10;99.90;;;;;;4856543;29;20376;-89
2021/12/05 03:21:09;;;;;;;;;;;1.10;99.90;;;;;;4846789;29;19955;-89
2021/12/05 03:23:36;;;;;;;;;;;1.10;99.90;;;;;;4870906;29;19923;-89
2021/12/05 03:26:03;;;;;;;;;;;1.10;99.90;;;;;;4869176;29;20363;-89
2021/12/05 03:28:29;;;;;;;;;;;1.20;99.90;;;;;;4854453;29;20377;-89
2021/12/05 03:30:54;;;;;;;;;;;1.20;99.90;;;;;;4871892;29;19916;-89
2021/12/05 03:33:20;;;;;;;;;;;1.20;99.90;;;;;;4871272;29;19912;-89
2021/12/05 03:35:45;;;;;;;;;;;1.20;99.90;;;;;;4869636;29;20360;-88
2021/12/05 03:38:11;;;;;;;;;;;1.20;99.90;;;;;;4870678;29;19916;-89
2021/12/05 03:40:36;;;;;;;;;;;1.10;99.90;;;;;;4860929;29;20319;-89
2021/12/05 03:43:04;;;;;;;;;;;1.20;99.90;;;;;;4869961;29;20426;-88
2021/12/05 03:45:33;;;;;;;;;;;1.20;99.90;;;;;;4846195;29;19939;-89
2021/12/05 03:48:00;;;;;;;;;;;1.20;99.90;;;;;;4871011;29;20261;-89
2021/12/05 03:50:26;;;;;;;;;;;1.20;99.90;;;;;;4858431;29;19920;-89
2021/12/05 03:52:51;;;;;;;;;;;1.10;99.90;;;;;;4873889;29;19911;-90
2021/12/05 03:55:18;;;;;;;;;;;1.10;99.90;;;;;;4874457;29;19912;-89
2021/12/05 03:57:43;;;;;;;;;;;1.10;99.90;;;;;;4867387;29;19911;-89
2021/12/05 04:00:24;;;;;;;;;;;1.10;99.90;;;;;;4858723;29;20166;-89
2021/12/05 04:02:50;;;;;;;;;;;1.10;99.90;;;;;;4859337;29;19915;-90
2021/12/05 04:05:18;;;;;;;;;;;1.00;99.90;;;;;;4848821;29;19948;-89
2021/12/05 04:07:44;;;;;;;;;;;1.00;99.90;;;;;;4866817;29;19919;-90
2021/12/05 04:10:10;;;;;;;;;;;1.00;99.90;;;;;;4861615;29;19916;-90
2021/12/05 04:12:36;;;;;;;;;;;1.00;99.90;;;;;;4858050;29;19979;-89
2021/12/05 04:15:02;;;;;;;;;;;1.00;99.90;;;;;;4844810;29;19987;-90
2021/12/05 04:17:28;;;;;;;;;;;1.00;99.90;;;;;;4865550;29;19919;-90
2021/12/05 04:19:53;;;;;;;;;;;1.10;99.90;;;;;;4842503;29;20332;-91
2021/12/05 04:22:19;;;;;;;;;;;1.10;99.90;;;;;;4871871;29;20163;-89
2021/12/05 04:24:48;;;;;;;;;;;1.20;99.90;;;;;;4873730;29;19923;-90
2021/12/05 04:27:14;;;;;;;;;;;1.20;99.90;;;;;;4873429;29;20324;-90
2021/12/05 04:29:39;;;;;;;;;;;1.20;99.90;;;;;;4852429;29;20825;-90
2021/12/05 04:32:08;;;;;;;;;;;1.20;99.90;;;;;;4857712;29;19912;-90
2021/12/05 04:34:36;;;;;;;;;;;1.20;99.90;;;;;;4839096;29;20694;-90
2021/12/05 04:37:03;;;;;;;;;;;1.30;99.90;;;;;;4848652;29;20010;-90
2021/12/05 04:39:38;;;;;;;;;;;1.20;99.90;;;;;;4855239;29;19912;-90
2021/12/05 04:42:03;;;;;;;;;;;1.20;99.90;;;;;;4855769;29;20006;-90
2021/12/05 04:44:30;;;;;;;;;;;1.20;99.90;;;;;;4843548;29;20374;-89
2021/12/05 04:47:01;;;;;;;;;;;1.20;99.90;;;;;;4858576;29;20415;-89
2021/12/05 04:49:27;;;;;;;;;;;1.20;99.90;;;;;;4849793;29;20280;-89
2021/12/05 04:51:54;;;;;;;;;;;1.20;99.90;;;;;;4867148;29;20007;-88
2021/12/05 04:54:20;;;;;;;;;;;1.20;99.90;;;;;;4867276;29;20381;-89
2021/12/05 04:56:48;;;;;;;;;;;1.20;99.90;;;;;;4826430;29;19972;-90
2021/12/05 04:59:16;;;;;;;;;;;1.20;99.90;;;;;;4838479;29;19916;-90
2021/12/05 05:01:43;;;;;;;;;;;1.20;99.90;;;;;;4835732;29;20484;-89
2021/12/05 05:04:19;;;;;;;;;;;1.20;99.90;;;;;;4843175;29;19991;-90
2021/12/05 05:06:45;;;;;;;;;;;1.20;99.90;;;;;;4844625;29;20563;-90
2021/12/05 05:09:11;;;;;;;;;;;1.30;99.90;;;;;;4868533;29;19962;-89
2021/12/05 05:11:37;;;;;;;;;;;1.20;99.90;;;;;;4867168;29;19916;-89
2021/12/05 05:14:03;;;;;;;;;;;1.30;99.90;;;;;;4852747;29;20411;-89
2021/12/05 05:16:29;;;;;;;;;;;1.20;99.90;;;;;;4868315;29;19947;-90
2021/12/05 05:18:59;;;;;;;;;;;1.20;99.90;;;;;;4868687;29;19955;-90
2021/12/05 05:50:35;;;;;;;;;;;1.30;99.90;;;;;;4871714;29;19923;-89
2021/12/05 05:53:03;;;;;;;;;;;1.30;99.90;;;;;;4872753;29;19912;-89
2021/12/05 05:55:29;;;;;;;;;;;1.30;99.90;;;;;;4845508;29;20769;-90
2021/12/05 05:58:14;;;;;;;;;;;1.30;99.90;;;;;;4830173;29;19937;-89
2021/12/05 06:00:52;;;;;;;;;;;1.40;99.90;;;;;;4854419;29;19954;-90
2021/12/05 06:03:38;;;;;;;;;;;1.40;99.90;;;;;;4849431;29;19973;-90
2021/12/05 06:06:05;;;;;;;;;;;1.40;99.90;;;;;;4864734;29;19920;-89
2021/12/05 06:08:33;;;;;;;;;;;1.30;99.90;;;;;;4842181;29;20345;-90
2021/12/05 06:11:03;;;;;;;;;;;1.40;99.90;;;;;;4872299;29;20013;-89
2021/12/05 06:13:29;;;;;;;;;;;1.40;99.90;;;;;;4856715;29;19912;-89
2021/12/05 06:15:55;;;;;;;;;;;1.40;99.90;;;;;;4854892;29;19939;-89
2021/12/05 06:18:30;;;;;;;;;;;1.40;99.90;;;;;;4849847;29;19916;-89
2021/12/05 06:20:58;;;;;;;;;;;1.50;99.90;;;;;;4824036;29;20404;-90
2021/12/05 06:23:27;;;;;;;;;;;1.50;99.90;;;;;;4846540;29;20364;-90
2021/12/05 06:25:53;;;;;;;;;;;1.40;99.90;;;;;;4853473;29;19919;-89
2021/12/05 06:28:24;;;;;;;;;;;1.40;99.90;;;;;;4870296;29;20328;-90
2021/12/05 08:32:49;;;;;;;;;;;;;;;;;;;;;
2021/12/05 10:39:27;;;;;;;;;;;1.90;99.90;;;;;;4833648;29;19924;-84
2021/12/05 10:42:11;;;;;;;;;;;1.90;99.90;;;;;;4827617;29;19921;-84
2021/12/05 10:44:44;;;;;;;;;;;1.90;99.90;;;;;;4841198;29;19946;-84
2021/12/05 10:47:12;;;;;;;;;;;2.00;99.90;;;;;;4840935;29;19917;-85
2021/12/05 10:49:43;;;;;;;;;;;2.00;99.90;;;;;;4829726;29;19916;-85
2021/12/05 10:52:12;;;;;;;;;;;2.10;99.90;;;;;;4834378;29;20501;-85
2021/12/05 10:54:41;;;;;;;;;;;2.20;99.90;;;;;;4834693;29;19916;-84
2021/12/05 11:38:49;;;;;;;;;;;2.00;99.90;;;;;;4860507;29;19927;-89
2021/12/05 11:41:20;;;;;;;;;;;2.00;99.90;;;;;;4841929;29;19992;-87
2021/12/05 11:43:56;;;;;;;;;;;2.00;99.90;;;;;;4853195;29;19916;-87
2021/12/05 11:46:22;;;;;;;;;;;2.00;99.90;;;;;;4836581;29;20564;-89
2021/12/05 11:48:50;;;;;;;;;;;2.00;99.90;;;;;;4860304;29;20368;-88
2021/12/05 11:51:25;;;;;;;;;;;2.00;99.90;;;;;;4838185;29;19916;-88
2021/12/05 11:54:08;;;;;;;;;;;2.10;99.90;;;;;;4846482;29;20253;-88
2021/12/05 11:56:33;;;;;;;;;;;2.20;99.90;;;;;;4860307;29;19944;-88
2021/12/05 11:59:03;;;;;;;;;;;2.20;99.90;;;;;;4857405;29;20022;-88
2021/12/05 12:01:37;;;;;;;;;;;2.30;99.90;;;;;;4856498;29;19915;-88
2021/12/05 12:04:03;;;;;;;;;;;2.30;99.90;;;;;;4833626;29;19912;-87
2021/12/05 12:06:28;;;;;;;;;;;2.30;99.90;;;;;;4838293;29;19999;-89
2021/12/05 12:08:55;;;;;;;;;;;2.40;99.90;;;;;;4859485;29;20068;-89
2021/12/05 12:11:41;;;;;;;;;;;2.40;99.90;;;;;;4842211;29;19915;-89
2021/12/05 12:14:06;;;;;;;;;;;2.40;99.90;;;;;;4853401;29;19916;-89
2021/12/05 12:16:33;;;;;;;;;;;2.20;99.90;;;;;;4861203;29;19939;-88
2021/12/05 12:19:02;;;;;;;;;;;2.20;99.90;;;;;;4860328;29;19942;-89
2021/12/05 12:21:37;;;;;;;;;;;2.20;99.90;;;;;;4841426;29;19919;-87
2021/12/05 12:24:03;;;;;;;;;;;2.20;99.90;;;;;;4846370;29;20007;-88
2021/12/05 12:26:28;;;;;;;;;;;2.20;99.90;;;;;;4842086;29;20413;-87
2021/12/05 12:28:59;;;;;;;;;;;2.30;99.90;;;;;;4840686;29;20393;-85
2021/12/05 12:31:31;;;;;;;;;;;2.30;99.90;;;;;;4856313;29;19913;-86
2021/12/05 12:33:58;;;;;;;;;;;2.30;99.90;;;;;;4856283;29;19922;-87
2021/12/05 12:36:34;;;;;;;;;;;2.30;99.90;;;;;;4833607;29;19920;-89
2021/12/05 12:39:34;;;;;;;;;;;2.30;99.90;;;;;;4814293;29;20392;-90
2021/12/05 12:42:12;;;;;;;;;;;2.30;99.90;;;;;;4854880;29;19916;-90
2021/12/05 12:45:01;;;;;;;;;;;2.20;99.90;;;;;;4820308;29;19916;-92
2021/12/05 12:47:36;;;;;;;;;;;2.10;99.90;;;;;;4803417;29;20019;-91
2021/12/05 12:50:20;;;;;;;;;;;2.10;99.90;;;;;;4838435;29;19915;-92
2021/12/05 12:53:00;;;;;;;;;;;2.10;99.90;;;;;;4818234;29;19923;-91
2021/12/05 12:55:27;;;;;;;;;;;2.10;99.90;;;;;;4839699;29;20368;-89
2021/12/05 12:57:53;;;;;;;;;;;2.20;99.90;;;;;;4827032;29;19912;-89
2021/12/05 13:00:22;;;;;;;;;;;2.20;99.90;;;;;;4854269;29;19938;-89
2021/12/05 13:10:54;;;;;;;;;;;2.30;99.90;;;;;;4858750;29;19964;-91
2021/12/05 13:13:26;;;;;;;;;;;2.30;99.90;;;;;;4840436;29;20267;-91
2021/12/05 13:15:59;;;;;;;;;;;2.30;99.90;;;;;;4837360;29;20369;-91
2021/12/05 13:18:36;;;;;;;;;;;2.30;99.90;;;;;;4816232;29;20257;-91
2021/12/05 13:21:09;;;;;;;;;;;2.20;99.90;;;;;;4857045;29;19948;-88
2021/12/05 13:23:43;;;;;;;;;;;2.30;99.90;;;;;;4833001;29;19950;-90
2021/12/05 13:26:11;;;;;;;;;;;2.40;99.90;;;;;;4812616;29;20010;-90
2021/12/05 13:28:42;;;;;;;;;;;2.30;99.90;;;;;;4852405;29;19923;-90
2021/12/05 13:31:27;;;;;;;;;;;2.30;99.90;;;;;;4844390;29;19912;-89
2021/12/05 13:34:20;;;;;;;;;;;2.30;99.90;;;;;;4831960;29;20007;-91
2021/12/05 13:36:51;;;;;;;;;;;2.30;99.90;;;;;;4852305;29;19974;-90
2021/12/05 13:39:26;;;;;;;;;;;2.40;99.90;;;;;;4857363;29;20364;-90
2021/12/05 13:45:21;;;;;;;;;;;2.30;99.90;;;;;;4742486;30;20466;-88
2021/12/05 13:47:55;;;;;;;;;;;2.30;99.90;;;;;;4729276;30;20311;-89
2021/12/05 13:50:28;;;;;;;;;;;2.40;99.90;;;;;;4735171;29;20422;-90
2021/12/05 14:05:24;;;;;;;;;;;3.30;99.90;;;;;;4726587;30;19914;-90
2021/12/05 14:07:54;;;;;;;;;;;3.70;99.90;;;;;;4703246;30;19913;-90
2021/12/05 14:10:20;;;;;;;;;;;3.20;99.90;;;;;;4732794;30;20451;-91
2021/12/05 14:12:46;;;;;;;;;;;3.00;99.90;;;;;;4756932;30;19917;-92
2021/12/05 14:15:13;;;;;;;;;;;2.80;99.90;;;;;;4786180;29;19912;-91
2021/12/05 14:17:45;;;;;;;;;;;2.70;99.90;;;;;;4864677;29;20036;-90
2021/12/05 14:20:29;;;;;;;;;;;2.70;99.90;;;;;;4835009;29;20313;-92
2021/12/05 14:23:06;;;;;;;;;;;2.50;99.90;;;;;;4815510;29;20021;-93
2021/12/05 14:25:36;;;;;;;;;;;2.50;99.90;;;;;;4836999;29;19920;-92
2021/12/05 14:28:03;;;;;;;;;;;2.40;99.90;;;;;;4841164;29;20631;-92
2021/12/05 14:30:41;;;;;;;;;;;2.40;99.90;;;;;;4809920;29;19914;-92
2021/12/05 14:33:16;;;;;;;;;;;2.40;99.90;;;;;;4797732;29;19980;-90
2021/12/05 14:35:42;;;;;;;;;;;2.40;99.90;;;;;;4819935;29;19918;-91
2021/12/05 14:38:10;;;;;;;;;;;2.60;99.90;;;;;;4823118;29;19927;-91
2021/12/05 14:40:39;;;;;;;;;;;2.50;99.90;;;;;;4821493;29;20006;-91
2021/12/05 14:43:08;;;;;;;;;;;2.40;99.90;;;;;;4831841;29;19916;-90
2021/12/05 14:45:38;;;;;;;;;;;2.40;99.90;;;;;;4830514;29;19931;-91
2021/12/05 14:48:09;;;;;;;;;;;2.40;99.90;;;;;;4840784;29;19939;-91
2021/12/05 14:51:11;;;;;;;;;;;2.30;99.90;;;;;;4805415;29;19961;-92
2021/12/05 14:53:43;;;;;;;;;;;2.30;99.90;;;;;;4799323;29;19923;-90
2021/12/05 14:56:11;;;;;;;;;;;2.20;99.90;;;;;;4821709;29;20425;-90
2021/12/05 14:58:44;;;;;;;;;;;2.20;99.90;;;;;;4832030;29;19998;-92
2021/12/05 15:01:12;;;;;;;;;;;2.10;99.90;;;;;;4813271;29;19913;-93
2021/12/05 15:03:50;;;;;;;;;;;2.10;99.90;;;;;;4809460;29;20006;-91
2021/12/05 15:06:19;;;;;;;;;;;2.10;99.90;;;;;;4812372;29;19922;-91
2021/12/05 15:08:45;;;;;;;;;;;2.10;99.90;;;;;;4828056;29;19966;-92
2021/12/05 15:11:24;;;;;;;;;;;2.00;99.90;;;;;;4833671;29;19916;-91
2021/12/05 15:14:07;;;;;;;;;;;2.10;99.90;;;;;;4857047;29;20479;-91
2021/12/05 15:16:35;;;;;;;;;;;2.00;99.90;;;;;;4837320;29;19917;-91
2021/12/05 15:19:03;;;;;;;;;;;2.00;99.90;;;;;;4807187;29;20274;-90
2021/12/05 15:24:27;;;;;;;;;;;2.00;99.90;;;;;;4782187;29;19918;-91
2021/12/05 15:26:53;;;;;;;;;;;2.00;99.90;;;;;;4843317;29;19920;-90
2021/12/05 15:29:22;;;;;;;;;;;1.90;99.90;;;;;;4851736;29;19920;-90
2021/12/05 15:31:48;;;;;;;;;;;2.00;99.90;;;;;;4841645;29;20575;-91
2021/12/05 15:34:34;;;;;;;;;;;1.90;99.90;;;;;;4840320;29;19967;-90
2021/12/05 15:37:07;;;;;;;;;;;2.00;99.90;;;;;;4812027;29;20003;-90
2021/12/05 15:39:33;;;;;;;;;;;2.00;99.90;;;;;;4836898;29;19974;-90
2021/12/05 15:41:59;;;;;;;;;;;2.00;99.90;;;;;;4845172;29;19955;-89
2021/12/05 15:44:31;;;;;;;;;;;2.00;99.90;;;;;;4856683;29;19938;-89
2021/12/05 15:47:00;;;;;;;;;;;2.00;99.90;;;;;;4838332;29;19926;-89
2021/12/05 15:49:28;;;;;;;;;;;2.00;99.90;;;;;;4858852;29;20295;-89
2021/12/05 15:52:00;;;;;;;;;;;2.00;99.90;;;;;;4829571;29;19916;-90
2021/12/05 15:54:28;;;;;;;;;;;2.00;99.90;;;;;;4841598;29;20918;-90
2021/12/05 15:57:05;;;;;;;;;;;2.00;99.90;;;;;;4856940;29;19916;-90
2021/12/05 15:59:39;;;;;;;;;;;2.00;99.90;;;;;;4853555;29;19916;-90
2021/12/05 16:02:07;;;;;;;;;;;2.00;99.90;;;;;;4838172;29;19999;-89
2021/12/05 16:04:33;;;;;;;;;;;2.10;99.90;;;;;;4859833;29;19922;-87
2021/12/05 16:07:00;;;;;;;;;;;2.10;99.90;;;;;;4839735;29;19916;-90
2021/12/05 16:09:27;;;;;;;;;;;2.10;99.90;;;;;;4840543;29;19920;-90
2021/12/05 16:12:04;;;;;;;;;;;2.00;99.90;;;;;;4859912;29;19919;-89
2021/12/05 16:14:32;;;;;;;;;;;2.10;99.90;;;;;;4855713;29;20616;-89
2021/12/05 16:16:58;;;;;;;;;;;2.00;99.90;;;;;;4858030;29;19919;-89
2021/12/05 16:19:24;;;;;;;;;;;2.00;99.90;;;;;;4844967;29;19916;-90
2021/12/05 16:21:52;;;;;;;;;;;2.10;99.90;;;;;;4844644;29;19938;-90
2021/12/05 16:24:20;;;;;;;;;;;2.00;99.90;;;;;;4856841;29;19920;-89
2021/12/05 16:26:47;;;;;;;;;;;2.10;99.90;;;;;;4859229;29;20830;-90
2021/12/05 16:29:15;;;;;;;;;;;2.00;99.90;;;;;;4837175;29;19940;-90
2021/12/05 16:31:42;;;;;;;;;;;2.00;99.90;;;;;;4835712;29;19931;-89
2021/12/05 16:34:09;;;;;;;;;;;2.00;99.90;;;;;;4850720;29;19920;-89
2021/12/05 16:36:36;;;;;;;;;;;2.00;99.90;;;;;;4838682;29;19916;-90
2021/12/05 16:39:22;;;;;;;;;;;2.00;99.90;;;;;;4843359;29;20392;-90
2021/12/05 16:41:51;;;;;;;;;;;2.00;99.90;;;;;;4846770;29;19920;-90
2021/12/05 16:44:20;;;;;;;;;;;2.00;99.90;;;;;;4855348;29;19912;-87
2021/12/05 16:46:47;;;;;;;;;;;2.00;99.90;;;;;;4849300;29;20018;-88
2021/12/05 16:49:14;;;;;;;;;;;2.00;99.90;;;;;;4852440;29;20007;-87
2021/12/05 16:51:45;;;;;;;;;;;2.00;99.90;;;;;;4836161;29;19916;-90
2021/12/05 16:54:17;;;;;;;;;;;2.00;99.90;;;;;;4840733;29;19968;-89
2021/12/05 16:56:49;;;;;;;;;;;2.00;99.90;;;;;;4855374;29;19916;-90
2021/12/05 16:59:25;;;;;;;;;;;2.00;99.90;;;;;;4856600;29;19941;-90
2021/12/05 17:02:09;;;;;;;;;;;2.00;99.90;;;;;;4837749;29;20587;-89
2021/12/05 17:05:03;;;;;;;;;;;2.00;99.90;;;;;;4853272;29;19916;-90
2021/12/05 17:07:42;;;;;;;;;;;2.00;99.90;;;;;;4821666;29;19916;-89
2021/12/05 17:10:10;;;;;;;;;;;2.00;99.90;;;;;;4839222;29;19916;-90
2021/12/05 17:12:39;;;;;;;;;;;2.00;99.90;;;;;;4844153;29;20360;-88
2021/12/05 17:15:15;;;;;;;;;;;2.00;99.90;;;;;;4842119;29;20281;-89
2021/12/05 17:17:44;;;;;;;;;;;1.90;99.90;;;;;;4853592;29;20622;-89
2021/12/05 17:20:27;;;;;;;;;;;1.90;99.90;;;;;;4854557;29;20737;-89
2021/12/05 17:22:55;;;;;;;;;;;1.90;99.90;;;;;;4834558;29;20407;-90
2021/12/05 17:25:26;;;;;;;;;;;2.00;99.90;;;;;;4837663;29;19923;-91
2021/12/05 17:27:52;;;;;;;;;;;1.90;99.90;;;;;;4839238;29;20014;-88
2021/12/05 17:30:17;;;;;;;;;;;1.90;99.90;;;;;;4853042;29;20056;-90
2021/12/05 17:32:46;;;;;;;;;;;2.00;99.90;;;;;;4842135;29;19919;-89
2021/12/05 17:35:11;;;;;;;;;;;2.00;99.90;;;;;;4834853;29;19975;-89
2021/12/05 17:37:37;;;;;;;;;;;2.00;99.90;;;;;;4841904;29;19931;-87
2021/12/05 17:40:05;;;;;;;;;;;2.00;99.90;;;;;;4854632;29;19916;-89
2021/12/05 17:42:32;;;;;;;;;;;2.10;99.90;;;;;;4838950;29;19916;-90
2021/12/05 17:44:59;;;;;;;;;;;2.00;99.90;;;;;;4844024;29;20411;-90
2021/12/05 17:47:28;;;;;;;;;;;2.00;99.90;;;;;;4851760;29;20344;-90
2021/12/05 17:49:55;;;;;;;;;;;2.00;99.90;;;;;;4834651;29;20493;-90
2021/12/05 17:52:23;;;;;;;;;;;2.10;99.90;;;;;;4838967;29;19916;-88
2021/12/05 17:57:19;;;;;;;;;;;2.00;99.90;;;;;;4854045;29;20149;-90
2021/12/05 18:05:13;;;;;;;;;;;2.00;99.90;;;;;;4856690;29;20250;-89
2021/12/05 18:07:39;;;;;;;;;;;2.00;99.90;;;;;;4850483;29;20380;-89
2021/12/05 18:10:04;;;;;;;;;;;2.10;99.90;;;;;;4838090;29;19916;-90
2021/12/05 18:12:35;;;;;;;;;;;2.00;99.90;;;;;;4838947;29;19923;-89
2021/12/05 18:15:15;;;;;;;;;;;2.00;99.90;;;;;;4857865;29;19916;-89
2021/12/05 18:17:41;;;;;;;;;;;2.00;99.90;;;;;;4833439;29;20373;-90
2021/12/05 18:20:07;;;;;;;;;;;2.00;99.90;;;;;;4840220;29;19972;-90
2021/12/05 18:22:39;;;;;;;;;;;2.00;99.90;;;;;;4839159;29;19952;-89
2021/12/05 18:25:05;;;;;;;;;;;2.00;99.90;;;;;;4841874;29;19912;-89
2021/12/05 18:27:30;;;;;;;;;;;2.00;99.90;;;;;;4834932;29;20303;-90
2021/12/05 18:29:56;;;;;;;;;;;2.00;99.90;;;;;;4854630;29;19917;-91
2021/12/05 18:32:22;;;;;;;;;;;2.00;99.90;;;;;;4840399;29;19912;-91
2021/12/05 18:34:49;;;;;;;;;;;2.00;99.90;;;;;;4842475;29;19916;-91
2021/12/05 18:37:15;;;;;;;;;;;2.00;99.90;;;;;;4843456;29;19944;-92
2021/12/05 18:39:46;;;;;;;;;;;2.00;99.90;;;;;;4845969;29;19920;-92
2021/12/05 18:42:12;;;;;;;;;;;1.90;99.90;;;;;;4810403;29;20357;-92
2021/12/05 18:44:46;;;;;;;;;;;1.90;99.90;;;;;;4812202;29;19947;-86
2021/12/05 18:47:12;;;;;;;;;;;1.90;99.90;;;;;;4818597;29;20308;-90
2021/12/05 18:49:37;;;;;;;;;;;1.90;99.90;;;;;;4821358;29;19923;-87
2021/12/05 18:52:03;;;;;;;;;;;2.00;99.90;;;;;;4836616;29;19927;-89
2021/12/05 18:54:33;;;;;;;;;;;2.00;99.90;;;;;;4840108;29;19916;-89
2021/12/05 18:56:58;;;;;;;;;;;2.00;99.90;;;;;;4829074;29;20303;-89
2021/12/05 18:59:25;;;;;;;;;;;2.00;99.90;;;;;;4826072;29;19920;-90
2021/12/05 19:04:45;;;;;;;;;;;1.90;99.90;;;;;;4841858;29;20283;-88
2021/12/05 19:07:18;;;;;;;;;;;1.90;99.90;;;;;;4817209;29;19922;-89
2021/12/05 19:12:16;;;;;;;;;;;1.90;99.90;;;;;;4842765;29;19916;-89
2021/12/05 19:14:43;;;;;;;;;;;1.90;99.90;;;;;;4846096;29;19936;-87
2021/12/05 19:17:13;;;;;;;;;;;1.90;99.90;;;;;;4844430;29;19916;-87
2021/12/05 19:19:40;;;;;;;;;;;1.90;99.90;;;;;;4845940;29;19923;-87
2021/12/05 19:22:13;;;;;;;;;;;1.90;99.90;;;;;;4816947;29;19916;-89
2021/12/05 19:24:42;;;;;;;;;;;1.80;99.90;;;;;;4824131;29;19912;-88
2021/12/05 19:27:18;;;;;;;;;;;1.90;99.90;;;;;;4805050;29;20304;-88
2021/12/05 19:29:45;;;;;;;;;;;1.90;99.90;;;;;;4838031;29;19912;-88
2021/12/05 19:32:10;;;;;;;;;;;1.90;99.90;;;;;;4841521;29;20489;-88
2021/12/05 19:34:48;;;;;;;;;;;1.90;99.90;;;;;;4840115;29;19916;-88
2021/12/05 19:37:17;;;;;;;;;;;1.90;99.90;;;;;;4794730;29;19928;-89
2021/12/05 19:43:17;;;;;;;;;;;1.90;99.90;;;;;;4774338;29;20048;-89
2021/12/05 22:29:19;;;;;;;;;;;1.60;99.90;;;;;;4844597;29;19924;-89
2021/12/05 22:31:45;;;;;;;;;;;1.60;99.90;;;;;;4834666;29;19920;-91
2021/12/05 22:34:26;;;;;;;;;;;1.70;99.90;;;;;;4851268;29;19923;-89
2021/12/05 22:36:57;;;;;;;;;;;1.60;99.90;;;;;;4816362;29;20434;-92
2021/12/05 22:39:25;;;;;;;;;;;1.60;99.90;;;;;;4836725;29;20261;-89
2021/12/05 22:41:53;;;;;;;;;;;1.60;99.90;;;;;;4856160;29;19998;-88
2021/12/05 22:44:25;;;;;;;;;;;1.70;99.90;;;;;;4854437;29;19916;-90
2021/12/05 22:46:53;;;;;;;;;;;1.70;99.90;;;;;;4861549;29;19926;-89
2021/12/05 22:49:24;;;;;;;;;;;1.80;99.90;;;;;;4847604;29;19916;-91
2021/12/05 22:54:46;;;;;;;;;;;1.70;99.90;;;;;;4824554;29;19916;-90
2021/12/05 22:57:17;;;;;;;;;;;1.70;99.90;;;;;;4858403;29;19912;-90
2021/12/05 22:59:43;;;;;;;;;;;1.70;99.90;;;;;;4852048;29;20332;-91
2021/12/05 23:02:08;;;;;;;;;;;1.70;99.90;;;;;;4837283;29;19927;-91
2021/12/05 23:04:36;;;;;;;;;;;1.70;99.90;;;;;;4859912;29;19916;-90
2021/12/05 23:07:02;;;;;;;;;;;1.70;99.90;;;;;;4859421;29;19981;-90
2021/12/05 23:09:28;;;;;;;;;;;1.70;99.90;;;;;;4860149;29;19916;-91
2021/12/05 23:11:54;;;;;;;;;;;1.70;99.90;;;;;;4799149;29;20791;-90
2021/12/05 23:14:20;;;;;;;;;;;1.80;99.90;;;;;;4828951;29;19916;-91
2021/12/05 23:16:46;;;;;;;;;;;1.80;99.90;;;;;;4840270;29;19919;-90
2021/12/05 23:19:12;;;;;;;;;;;1.80;99.90;;;;;;4845152;29;19991;-91
2021/12/05 23:21:42;;;;;;;;;;;1.80;99.90;;;;;;4829221;29;20242;-90
2021/12/05 23:24:11;;;;;;;;;;;1.80;99.90;;;;;;4824754;29;20349;-89
2021/12/05 23:26:38;;;;;;;;;;;1.80;99.90;;;;;;4836195;29;19927;-89
2021/12/05 23:29:05;;;;;;;;;;;1.80;99.90;;;;;;4856913;29;19954;-91
2021/12/05 23:31:31;;;;;;;;;;;1.70;99.90;;;;;;4825875;29;19912;-90
2021/12/05 23:33:56;;;;;;;;;;;1.70;99.90;;;;;;4850284;29;20288;-90
2021/12/05 23:36:23;;;;;;;;;;;1.70;99.90;;;;;;4851414;29;19916;-90
2021/12/05 23:38:50;;;;;;;;;;;1.80;99.90;;;;;;4836524;29;20432;-90
2021/12/05 23:41:16;;;;;;;;;;;1.70;99.90;;;;;;4846683;29;20341;-90
2021/12/05 23:43:41;;;;;;;;;;;1.70;99.90;;;;;;4829629;29;19919;-89
2021/12/05 23:46:15;;;;;;;;;;;1.70;99.90;;;;;;4854271;29;20622;-90
2021/12/05 23:48:47;;;;;;;;;;;1.70;99.90;;;;;;4830968;29;20152;-91
2021/12/05 23:51:13;;;;;;;;;;;1.70;99.90;;;;;;4830191;29;19916;-93
2021/12/05 23:53:39;;;;;;;;;;;1.70;99.90;;;;;;4839551;29;19976;-91
2021/12/05 23:56:05;;;;;;;;;;;1.70;99.90;;;;;;4861180;29;20379;-90
2021/12/05 23:58:31;;;;;;;;;;;1.70;99.90;;;;;;4851911;29;20023;-91
